Westhampton Beach, New York
Current Conditions -  °F | °C
As of 8:53 AM on Monday 20 Oct 2014 (Local Time) from KFOK Reporting Station
Clear Clear  
Wind Chill:   Ceiling: Unl
Heat Index:   Visibility: 10mi
Dew Point:   Wind: 0mph
Humidity: 82%   Direction: NA
Pressure: 30.14"   Gusts: NA
Location:  40.8°N, 72.61°W
Report Text: KFOK 201253Z 00000KT 10SM CLR 04/01 A3014 RMK AO2 SLP205 T00390011
Loading
Personal Weather Stations






























Interactive Weather Map
Tropical Storm Tracking
New forecast layout! Learn more

10-Day Weather Forecast

Advertisements
Track Severe Weather on mobile